createdAt,value
2023-03-17T00:00:53.326Z,45.23
2023-03-17T00:03:43.174Z,45.29
2023-03-17T00:06:33.829Z,45.44
2023-03-17T00:09:23.009Z,45.25
2023-03-17T00:12:12.955Z,45.30
2023-03-17T00:15:02.950Z,45.36
2023-03-17T00:17:52.638Z,45.15
2023-03-17T00:20:41.313Z,45.33
2023-03-17T00:23:30.016Z,45.61
2023-03-17T00:26:18.800Z,45.36
2023-03-17T00:29:08.441Z,45.75
2023-03-17T00:31:59.018Z,45.41
2023-03-17T00:34:47.945Z,45.56
2023-03-17T00:37:36.701Z,45.42
2023-03-17T00:40:29.468Z,45.56
2023-03-17T00:43:18.735Z,45.53
2023-03-17T00:46:13.157Z,45.49
2023-03-17T00:49:03.404Z,45.43
2023-03-17T00:51:52.682Z,45.58
2023-03-17T00:54:41.354Z,45.36
2023-03-17T00:57:29.986Z,45.36
2023-03-17T01:00:24.562Z,45.55
2023-03-17T01:03:14.599Z,45.74
2023-03-17T01:06:06.548Z,45.83
2023-03-17T01:08:56.921Z,45.77
2023-03-17T01:11:46.122Z,45.73
2023-03-17T01:14:37.821Z,45.91
2023-03-17T01:17:26.732Z,46.17
2023-03-17T01:20:21.639Z,45.83
2023-03-17T01:23:12.396Z,45.94
2023-03-17T01:26:06.650Z,45.67
2023-03-17T01:28:55.300Z,45.84
2023-03-17T01:31:44.257Z,46.08
2023-03-17T01:34:33.793Z,46.17
2023-03-17T01:37:22.706Z,46.18
2023-03-17T01:40:18.380Z,45.83
2023-03-17T01:43:21.483Z,46.14
2023-03-17T01:46:21.914Z,46.12
2023-03-17T01:49:16.075Z,45.92
2023-03-17T01:52:07.591Z,45.82
2023-03-17T01:54:59.102Z,45.79
2023-03-17T01:57:53.362Z,45.84
2023-03-17T02:00:42.101Z,46.04
2023-03-17T02:03:30.858Z,45.75
2023-03-17T02:06:20.141Z,45.87
2023-03-17T02:09:10.792Z,45.76
2023-03-17T02:12:00.784Z,46.05
2023-03-17T02:14:53.592Z,46.21
2023-03-17T02:17:42.443Z,45.79
2023-03-17T02:21:13.862Z,45.91
2023-03-17T02:24:07.609Z,45.85
2023-03-17T02:26:57.639Z,45.92
2023-03-17T02:29:47.268Z,46.17
2023-03-17T02:32:37.461Z,45.90
2023-03-17T02:35:27.157Z,45.77
2023-03-17T02:38:15.842Z,45.70
2023-03-17T02:41:06.429Z,46.09
2023-03-17T02:43:54.999Z,46.10
2023-03-17T02:46:43.624Z,45.94
2023-03-17T02:49:32.701Z,46.31
2023-03-17T02:52:21.319Z,45.85
2023-03-17T02:55:11.380Z,46.04
2023-03-17T02:58:03.054Z,46.08
2023-03-17T03:00:51.972Z,46.21
2023-03-17T03:03:40.776Z,46.09
2023-03-17T03:06:29.383Z,45.90
2023-03-17T03:09:18.839Z,46.38
2023-03-17T03:12:10.058Z,46.44
2023-03-17T03:15:00.918Z,46.34
2023-03-17T03:17:49.577Z,46.58
2023-03-17T03:20:38.401Z,46.09
2023-03-17T03:23:27.850Z,46.43
2023-03-17T03:26:16.674Z,46.24
2023-03-17T03:29:05.851Z,46.21
2023-03-17T03:31:56.028Z,46.47
2023-03-17T03:34:44.624Z,46.27
2023-03-17T03:37:34.134Z,46.58
2023-03-17T03:40:22.815Z,46.50
2023-03-17T03:43:22.291Z,46.22
2023-03-17T03:46:12.502Z,46.72
2023-03-17T03:49:02.514Z,46.65
2023-03-17T03:51:53.724Z,46.61
2023-03-17T03:54:42.334Z,46.30
2023-03-17T03:57:30.973Z,46.56
2023-03-17T04:00:20.423Z,46.52
2023-03-17T04:03:09.210Z,46.43
2023-03-17T04:05:59.243Z,46.32
2023-03-17T04:08:48.319Z,46.35
2023-03-17T04:11:38.187Z,46.60
2023-03-17T04:14:26.873Z,46.91
2023-03-17T04:17:16.004Z,46.41
2023-03-17T04:20:05.180Z,46.42
2023-03-17T04:22:55.232Z,46.33
2023-03-17T04:25:43.847Z,46.54
2023-03-17T04:28:32.564Z,46.46
2023-03-17T04:31:21.187Z,46.66
2023-03-17T04:34:14.473Z,46.55
2023-03-17T04:37:03.067Z,46.66
2023-03-17T04:39:53.337Z,46.55
2023-03-17T04:42:42.488Z,46.49
2023-03-17T04:45:31.161Z,46.40
2023-03-17T04:48:19.822Z,46.58
2023-03-17T04:51:11.582Z,46.54
2023-03-17T04:54:01.711Z,46.46
2023-03-17T04:56:52.132Z,46.91
2023-03-17T04:59:40.842Z,46.81
2023-03-17T05:02:30.057Z,46.61
2023-03-17T05:05:18.861Z,46.24
2023-03-17T05:08:07.909Z,46.12
2023-03-17T05:10:57.374Z,46.32
2023-03-17T05:13:48.745Z,46.19
2023-03-17T05:16:37.573Z,46.17
2023-03-17T05:19:26.865Z,46.39
2023-03-17T05:22:19.731Z,46.55
2023-03-17T05:25:11.516Z,46.28
2023-03-17T05:28:01.085Z,46.48
2023-03-17T05:30:51.996Z,44.88
2023-03-17T05:33:40.694Z,44.64
2023-03-17T05:36:29.405Z,44.54
2023-03-17T05:39:18.629Z,43.59
2023-03-17T05:42:09.967Z,43.49
2023-03-17T05:44:58.613Z,43.13
2023-03-17T05:47:48.908Z,42.73
2023-03-17T05:50:37.644Z,42.84
2023-03-17T05:53:26.626Z,42.26
2023-03-17T05:56:15.331Z,42.53
2023-03-17T05:59:04.765Z,42.42
2023-03-17T06:01:54.328Z,41.79
2023-03-17T06:04:44.539Z,42.07
2023-03-17T06:07:44.551Z,41.82
2023-03-17T06:10:38.949Z,41.68
2023-03-17T06:13:27.790Z,42.71
2023-03-17T06:16:18.804Z,43.57
2023-03-17T06:19:07.418Z,43.65
2023-03-17T06:21:59.759Z,43.65
2023-03-17T06:24:48.669Z,44.15
2023-03-17T06:27:37.446Z,44.29
2023-03-17T06:30:27.102Z,44.32
2023-03-17T06:33:17.942Z,44.10
2023-03-17T06:36:08.153Z,44.25
2023-03-17T06:38:58.184Z,44.44
2023-03-17T06:41:47.181Z,44.45
2023-03-17T06:44:36.404Z,44.95
2023-03-17T06:47:26.087Z,44.91
2023-03-17T06:50:14.814Z,45.01
2023-03-17T06:53:05.417Z,45.00
2023-03-17T06:55:56.260Z,45.10
2023-03-17T06:58:45.580Z,44.82
2023-03-17T07:01:34.337Z,45.47
2023-03-17T07:04:23.650Z,45.57
2023-03-17T07:07:12.458Z,45.27
2023-03-17T07:10:01.138Z,45.52
2023-03-17T07:12:52.131Z,45.39
2023-03-17T07:15:40.929Z,45.48
2023-03-17T07:18:32.452Z,45.53
2023-03-17T07:21:21.249Z,45.59
2023-03-17T07:24:12.225Z,45.30
2023-03-17T07:27:00.926Z,45.32
2023-03-17T07:29:51.278Z,45.38
2023-03-17T07:32:43.809Z,45.08
2023-03-17T07:35:33.966Z,45.26
2023-03-17T07:38:23.301Z,45.33
2023-03-17T07:41:11.934Z,45.30
2023-03-17T07:44:01.814Z,45.21
2023-03-17T07:46:52.804Z,45.20
2023-03-17T07:49:42.656Z,45.19
2023-03-17T07:52:31.539Z,45.53
2023-03-17T07:55:20.284Z,45.12
2023-03-17T07:58:09.203Z,45.16
2023-03-17T08:00:58.372Z,45.35
2023-03-17T08:03:48.627Z,45.71
2023-03-17T08:06:37.856Z,45.54
2023-03-17T08:09:27.561Z,45.70
2023-03-17T08:12:16.920Z,45.52
2023-03-17T08:15:06.731Z,45.82
2023-03-17T08:17:55.395Z,45.60
2023-03-17T08:20:46.077Z,45.84
2023-03-17T08:23:34.959Z,45.79
2023-03-17T08:26:24.699Z,45.49
2023-03-17T08:29:15.518Z,45.38
2023-03-17T08:32:04.481Z,45.29
2023-03-17T08:34:55.355Z,45.58
2023-03-17T08:37:45.598Z,45.48
2023-03-17T08:40:34.555Z,45.41
2023-03-17T08:43:23.987Z,45.36
2023-03-17T08:46:17.782Z,45.01
2023-03-17T08:49:06.640Z,45.01
2023-03-17T08:51:56.129Z,44.79
2023-03-17T08:54:47.307Z,44.47
2023-03-17T08:57:35.926Z,44.35
2023-03-17T09:00:26.732Z,44.53
2023-03-17T09:03:15.520Z,44.29
2023-03-17T09:06:08.835Z,44.46
2023-03-17T09:08:58.436Z,44.34
2023-03-17T09:11:48.555Z,44.43
2023-03-17T09:14:43.914Z,44.42
2023-03-17T09:17:33.342Z,42.47
2023-03-17T09:20:22.491Z,43.23
2023-03-17T09:23:12.168Z,43.53
2023-03-17T09:26:01.243Z,43.73
2023-03-17T09:28:51.499Z,44.09
2023-03-17T09:31:41.521Z,44.11
2023-03-17T09:34:33.362Z,44.05
2023-03-17T09:37:22.646Z,44.36
2023-03-17T09:40:15.860Z,44.19
2023-03-17T09:43:12.037Z,44.13
2023-03-17T09:46:10.609Z,44.49
2023-03-17T09:49:01.541Z,44.46
2023-03-17T09:51:51.661Z,44.25
2023-03-17T09:54:40.820Z,44.38
2023-03-17T09:57:33.577Z,44.50
2023-03-17T10:00:26.757Z,44.45
2023-03-17T10:03:17.593Z,44.40
2023-03-17T10:06:23.113Z,44.61
2023-03-17T10:09:25.431Z,44.72
2023-03-17T10:12:22.672Z,44.97
2023-03-17T10:15:18.336Z,44.97
2023-03-17T10:18:13.549Z,44.61
2023-03-17T10:21:06.260Z,44.46
2023-03-17T10:23:56.282Z,44.65
2023-03-17T10:26:48.189Z,44.90
2023-03-17T10:29:37.213Z,44.87
2023-03-17T10:32:26.029Z,44.67
2023-03-17T10:35:16.979Z,45.03
2023-03-17T10:38:17.020Z,45.04
2023-03-17T10:41:09.904Z,44.73
2023-03-17T10:43:59.519Z,44.80
2023-03-17T10:46:55.500Z,44.93
2023-03-17T10:49:46.205Z,44.80
2023-03-17T10:52:40.955Z,44.88
2023-03-17T10:55:34.477Z,44.74
2023-03-17T10:58:26.778Z,45.03
2023-03-17T11:01:20.199Z,45.02
2023-03-17T11:04:26.515Z,45.17
2023-03-17T11:07:19.389Z,45.15
2023-03-17T11:10:19.431Z,45.09
2023-03-17T11:13:10.532Z,45.12
2023-03-17T11:16:10.667Z,45.34
2023-03-17T11:19:02.157Z,45.38
2023-03-17T11:21:57.734Z,45.02
2023-03-17T11:24:53.751Z,45.36
2023-03-17T11:27:47.807Z,45.16
2023-03-17T11:30:38.971Z,45.42
2023-03-17T11:33:36.610Z,45.50
2023-03-17T11:36:38.110Z,45.61
2023-03-17T11:39:28.425Z,45.47
2023-03-17T11:42:19.880Z,45.40
2023-03-17T11:45:19.381Z,45.31
2023-03-17T11:48:17.286Z,45.25
2023-03-17T11:51:09.824Z,45.50
2023-03-17T11:54:10.097Z,45.29
2023-03-17T11:57:01.292Z,45.41
2023-03-17T11:59:54.449Z,45.32
2023-03-17T12:02:46.408Z,45.47
2023-03-17T12:05:37.456Z,45.41
2023-03-17T12:08:33.269Z,45.16
2023-03-17T12:11:24.948Z,45.53
2023-03-17T12:14:24.333Z,45.33
2023-03-17T12:17:18.489Z,45.65
2023-03-17T12:20:16.454Z,45.44
2023-03-17T12:23:12.124Z,45.42
2023-03-17T12:26:05.137Z,45.52
2023-03-17T12:28:58.521Z,45.46
2023-03-17T12:31:50.447Z,45.31
2023-03-17T12:34:46.046Z,45.57
2023-03-17T12:37:34.778Z,45.45
2023-03-17T12:40:29.461Z,45.71
2023-03-17T12:43:38.931Z,45.61
2023-03-17T12:47:03.410Z,45.47
2023-03-17T12:50:12.107Z,45.78
2023-03-17T12:53:15.513Z,45.71
2023-03-17T12:56:12.544Z,45.59
2023-03-17T12:59:04.308Z,45.97
2023-03-17T13:01:58.787Z,45.67
2023-03-17T13:04:58.108Z,45.78
2023-03-17T13:07:51.701Z,45.85
2023-03-17T13:10:42.739Z,45.80
2023-03-17T13:13:45.683Z,45.82
2023-03-17T13:16:35.865Z,45.68
2023-03-17T13:19:29.033Z,45.93
2023-03-17T13:22:36.151Z,45.75
2023-03-17T13:25:34.881Z,45.47
2023-03-17T13:28:28.651Z,46.00
2023-03-17T13:31:34.673Z,45.74
2023-03-17T13:34:23.546Z,45.95
2023-03-17T13:37:22.309Z,45.70
2023-03-17T13:40:18.387Z,45.81
2023-03-17T13:43:16.079Z,45.63
2023-03-17T13:46:36.468Z,45.47
2023-03-17T13:49:29.610Z,45.74
2023-03-17T13:52:20.744Z,45.50
2023-03-17T13:55:38.819Z,45.60
2023-03-17T13:58:34.417Z,45.61
2023-03-17T14:01:25.492Z,45.74
2023-03-17T14:04:25.323Z,45.77
2023-03-17T14:07:20.668Z,45.77
2023-03-17T14:10:16.702Z,45.48
2023-03-17T14:13:14.900Z,43.33
2023-03-17T14:16:07.475Z,36.62
2023-03-17T14:18:59.606Z,32.21
2023-03-17T14:21:50.163Z,29.26
2023-03-17T14:24:38.809Z,27.99
2023-03-17T14:27:28.511Z,27.74
2023-03-17T14:30:20.770Z,29.36
2023-03-17T14:33:18.721Z,31.14
2023-03-17T14:36:14.323Z,31.84
2023-03-17T14:39:04.800Z,32.15
2023-03-17T14:42:03.747Z,32.06
2023-03-17T14:45:03.419Z,32.38
2023-03-17T14:47:52.786Z,33.27
2023-03-17T14:50:51.014Z,32.93
2023-03-17T14:53:43.171Z,31.92
2023-03-17T14:56:36.932Z,31.69
2023-03-17T14:59:29.276Z,31.68
2023-03-17T15:02:23.963Z,31.39
2023-03-17T15:05:26.328Z,31.64
2023-03-17T15:08:47.162Z,31.67
2023-03-17T15:11:42.984Z,32.76
2023-03-17T15:14:33.626Z,31.71
2023-03-17T15:17:25.061Z,31.24
2023-03-17T15:20:16.286Z,31.91
2023-03-17T15:23:06.857Z,32.81
2023-03-17T15:25:56.948Z,34.48
2023-03-17T15:28:48.224Z,35.35
2023-03-17T15:31:36.921Z,35.88
2023-03-17T15:34:25.816Z,36.19
2023-03-17T15:37:19.058Z,37.05
2023-03-17T15:40:09.622Z,37.48
2023-03-17T15:43:01.028Z,37.58
2023-03-17T15:45:55.976Z,38.13
2023-03-17T15:48:44.961Z,38.42
2023-03-17T15:51:33.598Z,38.64
2023-03-17T15:54:23.423Z,38.99
2023-03-17T15:57:15.210Z,38.77
2023-03-17T16:00:04.357Z,39.17
2023-03-17T16:03:01.411Z,39.29
2023-03-17T16:05:50.993Z,39.83
2023-03-17T16:08:39.945Z,39.83
2023-03-17T16:11:32.673Z,39.81
2023-03-17T16:14:21.617Z,40.13
2023-03-17T16:17:20.653Z,40.34
2023-03-17T16:20:21.080Z,40.37
2023-03-17T16:23:16.688Z,40.22
2023-03-17T16:26:15.985Z,40.57
2023-03-17T16:29:07.651Z,40.47
2023-03-17T16:31:56.810Z,40.78
2023-03-17T16:34:45.705Z,40.92
2023-03-17T16:37:35.724Z,40.95
2023-03-17T16:40:26.494Z,41.00
2023-03-17T16:43:25.639Z,41.14
2023-03-17T16:46:16.689Z,41.18
2023-03-17T16:49:06.271Z,41.13
2023-03-17T16:51:54.855Z,41.14
2023-03-17T16:54:44.986Z,41.48
2023-03-17T16:57:34.920Z,41.39
2023-03-17T17:00:26.039Z,41.44
2023-03-17T17:03:17.478Z,41.79
2023-03-17T17:06:07.231Z,41.86
2023-03-17T17:08:56.203Z,41.52
2023-03-17T17:11:49.339Z,41.88
2023-03-17T17:14:38.652Z,41.71
2023-03-17T17:17:28.195Z,41.82
2023-03-17T17:20:18.488Z,41.94
2023-03-17T17:23:08.187Z,41.75
2023-03-17T17:25:56.920Z,42.24
2023-03-17T17:28:47.890Z,41.94
2023-03-17T17:31:36.746Z,41.41
2023-03-17T17:34:25.502Z,41.91
2023-03-17T17:37:16.043Z,41.87
2023-03-17T17:40:05.798Z,41.94
2023-03-17T17:42:55.487Z,42.11
2023-03-17T17:45:48.525Z,42.34
2023-03-17T17:48:37.167Z,42.25
2023-03-17T17:51:26.573Z,42.11
2023-03-17T17:54:15.191Z,42.08
2023-03-17T17:57:04.133Z,41.96
2023-03-17T17:59:53.437Z,42.22
2023-03-17T18:02:43.538Z,42.22
2023-03-17T18:05:32.425Z,42.08
2023-03-17T18:08:21.333Z,42.26
2023-03-17T18:11:10.263Z,42.32
2023-03-17T18:13:59.515Z,42.03
2023-03-17T18:16:48.279Z,42.13
2023-03-17T18:19:38.392Z,41.98
2023-03-17T18:22:38.672Z,41.85
2023-03-17T18:25:27.768Z,42.12
2023-03-17T18:28:17.193Z,42.46
2023-03-17T18:31:10.931Z,42.09
2023-03-17T18:34:07.134Z,42.12
2023-03-17T18:36:59.621Z,42.42
2023-03-17T18:40:06.087Z,42.70
2023-03-17T18:42:57.976Z,41.96
2023-03-17T18:45:48.961Z,41.70
2023-03-17T18:48:37.866Z,41.90
2023-03-17T18:51:26.550Z,42.19
2023-03-17T18:54:18.979Z,43.05
2023-03-17T18:57:08.480Z,42.16
2023-03-17T18:59:58.554Z,42.23
2023-03-17T19:02:48.019Z,42.27
2023-03-17T19:05:38.444Z,42.44
2023-03-17T19:08:28.065Z,42.21
2023-03-17T19:11:20.956Z,42.00
2023-03-17T19:14:11.835Z,41.86
2023-03-17T19:17:00.625Z,42.20
2023-03-17T19:19:50.704Z,41.98
2023-03-17T19:22:42.686Z,42.08
2023-03-17T19:25:31.608Z,42.45
2023-03-17T19:28:22.047Z,42.55
2023-03-17T19:31:10.709Z,42.41
2023-03-17T19:33:59.442Z,42.65
2023-03-17T19:36:48.719Z,42.29
2023-03-17T19:39:37.857Z,42.50
2023-03-17T19:42:27.520Z,42.52
2023-03-17T19:45:18.604Z,42.82
2023-03-17T19:48:07.457Z,42.50
2023-03-17T19:50:57.320Z,42.60
2023-03-17T19:53:46.004Z,43.16
2023-03-17T19:56:34.990Z,43.30
2023-03-17T19:59:23.888Z,43.30
2023-03-17T20:02:21.635Z,42.93
2023-03-17T20:05:11.081Z,42.97
2023-03-17T20:07:59.812Z,43.10
2023-03-17T20:10:53.792Z,42.85
2023-03-17T20:13:42.693Z,43.36
2023-03-17T20:16:33.600Z,43.13
2023-03-17T20:19:23.905Z,43.39
2023-03-17T20:22:12.633Z,43.36
2023-03-17T20:25:01.419Z,43.32
2023-03-17T20:27:52.270Z,43.60
2023-03-17T20:30:43.942Z,43.34
2023-03-17T20:33:33.301Z,43.26
2023-03-17T20:36:23.631Z,43.39
2023-03-17T20:39:17.123Z,43.46
2023-03-17T20:42:10.196Z,43.52
2023-03-17T20:44:59.007Z,43.78
2023-03-17T20:47:48.820Z,43.67
2023-03-17T20:50:37.888Z,44.57
2023-03-17T20:53:29.612Z,43.96
2023-03-17T20:56:20.008Z,43.88
2023-03-17T20:59:11.136Z,43.24
2023-03-17T21:01:59.738Z,43.39
2023-03-17T21:04:49.042Z,43.59
2023-03-17T21:07:37.686Z,43.46
2023-03-17T21:10:27.845Z,43.70
2023-03-17T21:13:18.258Z,43.62
2023-03-17T21:16:07.432Z,44.08
2023-03-17T21:18:56.409Z,43.67
2023-03-17T21:21:45.705Z,44.23
2023-03-17T21:27:46.893Z,44.41
2023-03-17T21:30:36.952Z,44.03
2023-03-17T21:33:28.458Z,44.19
2023-03-17T21:36:17.316Z,44.38
2023-03-17T21:39:07.529Z,44.24
2023-03-17T21:41:56.914Z,44.22
2023-03-17T21:44:48.356Z,44.43
2023-03-17T21:47:37.594Z,44.23
2023-03-17T21:50:27.027Z,44.23
2023-03-17T21:53:16.175Z,44.04
2023-03-17T21:56:05.350Z,43.92
2023-03-17T21:58:54.980Z,43.83
2023-03-17T22:01:52.152Z,44.01
2023-03-17T22:04:41.692Z,44.00
2023-03-17T22:07:30.963Z,44.02
2023-03-17T22:10:19.840Z,43.73
2023-03-17T22:13:08.539Z,44.02
2023-03-17T22:16:06.587Z,44.49
2023-03-17T22:18:57.132Z,44.34
2023-03-17T22:21:45.808Z,44.34
2023-03-17T22:24:34.476Z,43.87
2023-03-17T22:27:23.256Z,44.18
2023-03-17T22:30:14.621Z,43.94
2023-03-17T22:33:03.293Z,44.14
2023-03-17T22:35:53.483Z,43.96
2023-03-17T22:38:42.568Z,43.85
2023-03-17T22:41:32.143Z,44.15
2023-03-17T22:44:21.969Z,44.10
2023-03-17T22:47:11.762Z,44.41
2023-03-17T22:50:00.604Z,44.24
2023-03-17T22:52:50.867Z,44.52
2023-03-17T22:55:39.620Z,44.30
2023-03-17T22:58:28.717Z,44.25
2023-03-17T23:01:19.159Z,44.02
2023-03-17T23:04:09.084Z,43.97
2023-03-17T23:06:59.188Z,44.07
2023-03-17T23:09:49.416Z,44.89
2023-03-17T23:12:39.536Z,45.40
2023-03-17T23:15:28.650Z,45.28
2023-03-17T23:18:17.503Z,45.49
2023-03-17T23:21:07.836Z,45.81
2023-03-17T23:23:56.628Z,45.69
2023-03-17T23:26:46.843Z,45.05
2023-03-17T23:29:35.947Z,44.70
2023-03-17T23:32:24.912Z,44.38
2023-03-17T23:35:15.490Z,44.31
2023-03-17T23:38:05.155Z,44.04
2023-03-17T23:40:57.690Z,43.77
2023-03-17T23:43:49.007Z,43.27
2023-03-17T23:46:37.714Z,43.13
2023-03-17T23:49:27.648Z,42.95
2023-03-17T23:52:16.881Z,43.11
2023-03-17T23:55:06.758Z,42.86
2023-03-17T23:57:55.749Z,42.56
